createdAt,value
2023-03-04T00:00:30.768Z,14.65
2023-03-04T00:02:58.587Z,15.65
2023-03-04T00:05:26.498Z,15.00
2023-03-04T00:07:54.280Z,15.30
2023-03-04T00:10:22.136Z,15.95
2023-03-04T00:12:49.911Z,15.98
2023-03-04T00:15:17.741Z,16.25
2023-03-04T00:17:46.620Z,15.60
2023-03-04T00:20:14.899Z,16.70
2023-03-04T00:22:42.721Z,16.80
2023-03-04T00:25:10.520Z,16.95
2023-03-04T00:27:38.289Z,17.02
2023-03-04T00:30:07.383Z,16.05
2023-03-04T00:32:35.202Z,17.25
2023-03-04T00:35:07.190Z,18.58
2023-03-04T00:37:35.240Z,18.33
2023-03-04T00:40:03.120Z,19.35
2023-03-04T00:42:30.935Z,19.30
2023-03-04T00:44:59.580Z,18.90
2023-03-04T00:47:27.328Z,19.35
2023-03-04T00:49:55.125Z,19.90
2023-03-04T00:52:22.958Z,18.98
2023-03-04T00:54:50.701Z,18.98
2023-03-04T00:57:18.508Z,19.17
2023-03-04T00:59:46.537Z,18.02
2023-03-04T01:02:14.389Z,17.75
2023-03-04T01:04:43.243Z,18.20
2023-03-04T01:07:11.114Z,18.88
2023-03-04T01:09:40.061Z,19.55
2023-03-04T01:12:07.978Z,18.35
2023-03-04T01:14:35.987Z,19.20
2023-03-04T01:17:04.235Z,19.52
2023-03-04T01:19:32.386Z,19.02
2023-03-04T01:22:00.225Z,17.73
2023-03-04T01:24:30.130Z,18.67
2023-03-04T01:26:58.034Z,17.85
2023-03-04T01:29:26.008Z,18.48
2023-03-04T01:31:53.845Z,17.48
2023-03-04T01:34:21.788Z,16.45
2023-03-04T01:36:49.677Z,16.05
2023-03-04T01:39:19.809Z,17.45
2023-03-04T01:41:47.938Z,17.23
2023-03-04T01:44:16.077Z,16.70
2023-03-04T01:46:50.127Z,16.55
2023-03-04T01:49:19.550Z,16.70
2023-03-04T01:51:53.893Z,17.15
2023-03-04T01:54:22.976Z,16.55
2023-03-04T01:56:52.789Z,16.65
2023-03-04T01:59:23.416Z,16.98
2023-03-04T02:01:55.066Z,16.13
2023-03-04T02:04:26.333Z,16.02
2023-03-04T02:06:55.609Z,16.48
2023-03-04T02:09:23.647Z,16.10
2023-03-04T02:11:53.333Z,16.50
2023-03-04T02:14:22.407Z,17.33
2023-03-04T02:16:52.119Z,16.80
2023-03-04T02:19:35.084Z,17.00
2023-03-04T02:22:03.266Z,15.93
2023-03-04T02:24:51.163Z,15.48
2023-03-04T02:27:21.646Z,17.23
2023-03-04T02:29:50.999Z,16.35
2023-03-04T02:32:19.110Z,15.35
2023-03-04T02:34:53.014Z,16.63
2023-03-04T02:37:22.259Z,16.15
2023-03-04T02:39:53.510Z,15.65
2023-03-04T02:42:21.330Z,16.88
2023-03-04T02:44:50.637Z,15.95
2023-03-04T02:47:20.760Z,15.80
2023-03-04T02:49:50.297Z,16.48
2023-03-04T02:52:21.278Z,16.33
2023-03-04T02:54:49.251Z,17.42
2023-03-04T02:57:18.273Z,16.17
2023-03-04T02:59:50.014Z,15.80
2023-03-04T03:02:22.180Z,18.05
2023-03-04T03:04:50.164Z,16.55
2023-03-04T03:07:20.532Z,16.45
2023-03-04T03:09:49.643Z,16.10
2023-03-04T03:12:18.993Z,16.40
2023-03-04T03:14:46.867Z,15.85
2023-03-04T03:17:18.169Z,16.35
2023-03-04T03:19:46.056Z,16.80
2023-03-04T03:22:14.421Z,16.30
2023-03-04T03:24:42.509Z,16.75
2023-03-04T03:27:10.409Z,16.60
2023-03-04T03:29:38.309Z,16.92
2023-03-04T03:32:08.830Z,15.95
2023-03-04T03:34:36.642Z,15.65
2023-03-04T03:37:04.490Z,16.00
2023-03-04T03:39:32.287Z,16.90
2023-03-04T03:42:00.148Z,16.73
2023-03-04T03:44:28.066Z,16.73
2023-03-04T03:46:56.006Z,16.85
2023-03-04T03:49:23.858Z,16.20
2023-03-04T03:51:51.853Z,16.40
2023-03-04T03:54:19.771Z,16.63
2023-03-04T03:56:47.603Z,16.73
2023-03-04T03:59:15.450Z,15.75
2023-03-04T04:01:43.353Z,16.65
2023-03-04T04:04:11.439Z,15.95
2023-03-04T04:06:39.257Z,16.50
2023-03-04T04:09:07.161Z,16.70
2023-03-04T04:11:35.132Z,16.27
2023-03-04T04:14:03.032Z,17.30
2023-03-04T04:16:31.208Z,16.42
2023-03-04T04:18:59.251Z,15.57
2023-03-04T04:21:27.111Z,16.83
2023-03-04T04:23:54.983Z,15.93
2023-03-04T04:26:22.812Z,17.10
2023-03-04T04:28:50.621Z,16.33
2023-03-04T04:31:18.614Z,17.77
2023-03-04T04:33:46.567Z,16.80
2023-03-04T04:36:16.614Z,15.70
2023-03-04T04:38:45.486Z,16.88
2023-03-04T04:41:28.889Z,16.73
2023-03-04T04:43:56.744Z,16.98
2023-03-04T04:46:24.701Z,16.33
2023-03-04T04:48:52.524Z,17.05
2023-03-04T04:51:20.394Z,16.70
2023-03-04T04:53:48.857Z,16.45
2023-03-04T04:56:19.992Z,17.15
2023-03-04T04:58:48.858Z,16.25
2023-03-04T05:03:58.915Z,17.25
2023-03-04T05:06:27.353Z,18.05
2023-03-04T05:08:55.269Z,17.33
2023-03-04T05:11:23.272Z,17.48
2023-03-04T05:13:51.688Z,16.77
2023-03-04T05:16:19.621Z,18.58
2023-03-04T05:18:47.514Z,17.73
2023-03-04T05:21:15.715Z,18.13
2023-03-04T05:23:44.229Z,18.30
2023-03-04T05:26:17.320Z,16.60
2023-03-04T05:28:45.912Z,17.23
2023-03-04T05:31:14.195Z,18.02
2023-03-04T05:33:42.001Z,17.25
2023-03-04T05:36:10.072Z,17.52
2023-03-04T05:38:38.083Z,18.35
2023-03-04T05:41:07.737Z,17.25
2023-03-04T05:43:36.992Z,18.58
2023-03-04T05:46:05.156Z,17.23
2023-03-04T05:48:33.003Z,17.80
2023-03-04T05:51:02.192Z,17.92
2023-03-04T05:53:30.183Z,18.10
2023-03-04T05:56:00.378Z,18.50
2023-03-04T05:58:28.269Z,18.25
2023-03-04T06:01:00.498Z,17.75
2023-03-04T06:03:28.382Z,17.25
2023-03-04T06:05:56.253Z,18.05
2023-03-04T06:08:24.143Z,17.98
2023-03-04T06:10:57.199Z,17.05
2023-03-04T06:13:27.691Z,18.52
2023-03-04T06:15:58.038Z,18.30
2023-03-04T06:18:27.413Z,17.73
2023-03-04T06:21:03.447Z,18.40
2023-03-04T06:23:31.571Z,18.23
2023-03-04T06:26:00.901Z,17.30
2023-03-04T06:28:29.434Z,18.58
2023-03-04T06:30:58.150Z,18.52
2023-03-04T06:33:26.561Z,18.20
2023-03-04T06:35:56.848Z,17.67
2023-03-04T06:38:26.438Z,17.77
2023-03-04T06:40:57.153Z,18.00
2023-03-04T06:43:25.657Z,18.60
2023-03-04T06:45:53.982Z,18.83
2023-03-04T06:48:21.784Z,18.25
2023-03-04T06:50:49.594Z,18.95
2023-03-04T06:53:17.427Z,18.50
2023-03-04T06:55:45.248Z,18.58
2023-03-04T06:58:13.112Z,19.20
2023-03-04T07:00:40.966Z,20.20
2023-03-04T07:03:09.710Z,17.92
2023-03-04T07:05:37.573Z,19.17
2023-03-04T07:08:07.403Z,19.02
2023-03-04T07:10:35.817Z,19.38
2023-03-04T07:13:03.934Z,18.65
2023-03-04T07:15:31.893Z,19.98
2023-03-04T07:17:59.780Z,19.50
2023-03-04T07:20:29.128Z,19.13
2023-03-04T07:22:58.637Z,20.40
2023-03-04T07:25:26.830Z,18.27
2023-03-04T07:27:54.740Z,18.23
2023-03-04T07:30:22.770Z,19.10
2023-03-04T07:32:50.635Z,18.98
2023-03-04T07:35:18.665Z,19.20
2023-03-04T07:37:46.679Z,19.75
2023-03-04T07:40:14.621Z,18.73
2023-03-04T07:42:42.566Z,20.27
2023-03-04T07:45:13.182Z,18.95
2023-03-04T07:47:41.646Z,18.77
2023-03-04T07:50:11.371Z,18.88
2023-03-04T07:52:40.836Z,19.25
2023-03-04T07:55:10.648Z,19.48
2023-03-04T07:57:43.423Z,19.67
2023-03-04T08:00:13.641Z,18.63
2023-03-04T08:02:42.025Z,18.55
2023-03-04T08:05:10.013Z,19.13
2023-03-04T08:07:38.026Z,17.67
2023-03-04T08:10:06.911Z,16.90
2023-03-04T08:12:36.671Z,19.70
2023-03-04T08:15:04.861Z,18.77
2023-03-04T08:17:32.671Z,19.20
2023-03-04T08:20:00.485Z,18.55
2023-03-04T08:22:28.245Z,19.15
2023-03-04T08:24:56.093Z,19.95
2023-03-04T08:27:23.919Z,19.63
2023-03-04T08:29:51.646Z,19.65
2023-03-04T08:32:19.605Z,20.15
2023-03-04T08:34:47.581Z,19.63
2023-03-04T08:37:15.503Z,18.75
2023-03-04T08:39:43.350Z,19.17
2023-03-04T08:42:11.140Z,19.40
2023-03-04T08:44:39.002Z,20.05
2023-03-04T08:47:09.419Z,18.67
2023-03-04T08:49:37.304Z,20.17
2023-03-04T08:52:05.644Z,19.02
2023-03-04T08:54:33.538Z,18.10
2023-03-04T08:57:01.489Z,17.17
2023-03-04T08:59:29.291Z,16.65
2023-03-04T09:01:57.236Z,16.83
2023-03-04T09:04:25.162Z,17.33
2023-03-04T09:06:54.311Z,17.27
2023-03-04T09:09:22.478Z,15.75
2023-03-04T09:11:50.375Z,15.40
2023-03-04T09:14:18.221Z,16.63
2023-03-04T09:16:46.054Z,17.30
2023-03-04T09:19:13.880Z,17.80
2023-03-04T09:21:41.721Z,17.10
2023-03-04T09:24:09.573Z,16.35
2023-03-04T09:26:37.439Z,17.27
2023-03-04T09:29:05.341Z,16.98
2023-03-04T09:31:33.428Z,17.08
2023-03-04T09:34:01.334Z,16.85
2023-03-04T09:36:29.161Z,16.35
2023-03-04T09:39:00.745Z,16.05
2023-03-04T09:41:42.534Z,16.13
2023-03-04T09:44:19.182Z,16.80
2023-03-04T09:46:48.874Z,15.73
2023-03-04T09:49:18.532Z,16.00
2023-03-04T09:51:52.581Z,15.95
2023-03-04T09:54:50.651Z,17.73
2023-03-04T09:57:46.155Z,16.45
2023-03-04T10:00:31.071Z,16.73
2023-03-04T10:03:11.019Z,16.60
2023-03-04T10:05:50.544Z,15.48
2023-03-04T10:08:33.498Z,16.77
2023-03-04T10:11:04.349Z,16.80
2023-03-04T10:13:41.081Z,16.65
2023-03-04T10:16:15.193Z,15.52
2023-03-04T10:18:50.145Z,15.18
2023-03-04T10:21:21.710Z,14.55
2023-03-04T10:23:49.981Z,14.77
2023-03-04T10:26:21.393Z,15.27
2023-03-04T10:28:49.960Z,15.32
2023-03-04T10:31:38.693Z,16.55
2023-03-04T10:34:07.264Z,15.93
2023-03-04T10:36:40.209Z,16.25
2023-03-04T10:39:09.905Z,16.63
2023-03-04T10:41:42.139Z,16.13
2023-03-04T10:44:09.926Z,17.53
2023-03-04T10:46:42.356Z,17.27
2023-03-04T10:49:15.654Z,18.58
2023-03-04T10:51:50.324Z,17.30
2023-03-04T10:54:42.452Z,17.92
2023-03-04T10:57:30.530Z,18.67
2023-03-04T11:00:03.110Z,19.52
2023-03-04T11:02:35.023Z,19.27
2023-03-04T11:05:15.499Z,18.90
2023-03-04T11:07:55.166Z,18.42
2023-03-04T11:10:32.139Z,18.15
2023-03-04T11:13:03.989Z,18.85
2023-03-04T11:15:48.651Z,18.75
2023-03-04T11:18:19.698Z,19.08
2023-03-04T11:20:50.388Z,19.15
2023-03-04T11:23:23.941Z,18.77
2023-03-04T11:26:04.651Z,17.70
2023-03-04T11:28:42.349Z,16.95
2023-03-04T11:31:18.274Z,17.17
2023-03-04T11:34:10.359Z,16.38
2023-03-04T11:37:10.081Z,17.17
2023-03-04T11:39:59.052Z,17.20
2023-03-04T11:42:42.049Z,17.90
2023-03-04T11:45:28.422Z,16.42
2023-03-04T11:48:11.939Z,17.92
2023-03-04T11:51:13.751Z,15.27
2023-03-04T11:53:52.114Z,15.88
2023-03-04T11:56:31.685Z,16.00
2023-03-04T11:59:10.552Z,15.85
2023-03-04T12:02:04.579Z,15.30
2023-03-04T12:04:56.824Z,15.65
2023-03-04T12:07:30.661Z,14.60
2023-03-04T12:10:17.096Z,16.08
2023-03-04T12:13:17.275Z,17.55
2023-03-04T12:16:06.401Z,16.25
2023-03-04T12:18:51.201Z,16.30
2023-03-04T12:22:01.848Z,16.23
2023-03-04T12:25:19.198Z,17.20
2023-03-04T12:28:05.501Z,14.95
2023-03-04T12:31:01.687Z,15.40
2023-03-04T12:34:00.147Z,15.48
2023-03-04T12:37:05.546Z,16.58
2023-03-04T12:39:56.426Z,16.23
2023-03-04T12:42:38.321Z,15.80
2023-03-04T12:45:39.788Z,14.87
2023-03-04T12:48:33.529Z,14.60
2023-03-04T12:51:04.281Z,15.80
2023-03-04T12:54:19.738Z,15.93
2023-03-04T12:57:25.467Z,15.80
2023-03-04T13:00:09.096Z,16.15
2023-03-04T13:02:56.507Z,17.05
2023-03-04T13:05:57.512Z,17.58
2023-03-04T13:08:25.294Z,17.30
2023-03-04T13:10:53.660Z,16.63
2023-03-04T13:13:36.031Z,17.80
2023-03-04T13:16:32.786Z,16.95
2023-03-04T13:19:00.819Z,16.60
2023-03-04T13:21:32.060Z,16.55
2023-03-04T13:24:38.248Z,16.40
2023-03-04T13:27:43.060Z,18.10
2023-03-04T13:30:32.172Z,17.75
2023-03-04T13:33:08.800Z,17.65
2023-03-04T13:35:55.082Z,16.27
2023-03-04T13:38:36.611Z,16.63
2023-03-04T13:41:15.529Z,16.90
2023-03-04T13:43:53.788Z,16.50
2023-03-04T13:46:23.941Z,15.48
2023-03-04T13:48:52.060Z,16.45
2023-03-04T13:51:28.967Z,16.08
2023-03-04T13:54:00.903Z,15.95
2023-03-04T13:56:37.420Z,16.63
2023-03-04T13:59:12.606Z,16.98
2023-03-04T14:01:43.419Z,17.65
2023-03-04T14:04:25.181Z,16.17
2023-03-04T14:06:58.346Z,16.80
2023-03-04T14:09:32.454Z,17.52
2023-03-04T14:12:04.321Z,16.05
2023-03-04T14:14:45.374Z,18.77
2023-03-04T14:17:35.399Z,17.42
2023-03-04T14:20:05.576Z,17.17
2023-03-04T14:22:40.370Z,17.15
2023-03-04T14:25:14.101Z,17.55
2023-03-04T14:27:42.027Z,17.70
2023-03-04T14:30:39.174Z,16.92
2023-03-04T14:33:16.214Z,18.55
2023-03-04T14:35:50.088Z,17.63
2023-03-04T14:38:34.167Z,18.58
2023-03-04T14:41:28.322Z,18.50
2023-03-04T14:44:05.481Z,18.05
2023-03-04T14:46:40.570Z,19.05
2023-03-04T14:49:13.628Z,18.65
2023-03-04T14:51:56.623Z,18.30
2023-03-04T14:56:55.057Z,18.25
2023-03-04T14:59:33.955Z,19.50
2023-03-04T15:02:24.707Z,17.33
2023-03-04T15:04:52.681Z,18.50
2023-03-04T15:07:34.892Z,18.75
2023-03-04T15:10:06.626Z,18.80
2023-03-04T15:12:37.763Z,18.33
2023-03-04T15:15:31.513Z,18.55
2023-03-04T15:18:13.974Z,18.50
2023-03-04T15:20:42.149Z,19.52
2023-03-04T15:23:15.345Z,18.73
2023-03-04T15:25:43.325Z,19.10
2023-03-04T15:28:21.248Z,19.52
2023-03-04T15:30:49.316Z,19.27
2023-03-04T15:33:19.988Z,19.88
2023-03-04T15:35:56.382Z,19.65
2023-03-04T15:38:26.305Z,19.10
2023-03-04T15:40:55.291Z,18.27
2023-03-04T15:43:23.690Z,18.70
2023-03-04T15:45:52.732Z,19.02
2023-03-04T15:48:21.307Z,19.25
2023-03-04T15:50:56.106Z,19.60
2023-03-04T15:53:37.899Z,18.20
2023-03-04T15:56:12.060Z,19.55
2023-03-04T15:58:40.418Z,19.35
2023-03-04T16:01:15.113Z,18.88
2023-03-04T16:03:43.375Z,19.13
2023-03-04T16:06:14.681Z,19.77
2023-03-04T16:08:43.130Z,19.05
2023-03-04T16:11:17.226Z,18.85
2023-03-04T16:13:45.186Z,20.02
2023-03-04T16:16:13.775Z,18.92
2023-03-04T16:18:42.491Z,19.30
2023-03-04T16:21:14.362Z,19.27
2023-03-04T16:23:45.583Z,19.25
2023-03-04T16:26:17.382Z,20.23
2023-03-04T16:28:45.249Z,18.52
2023-03-04T16:31:14.823Z,19.95
2023-03-04T16:33:43.097Z,19.63
2023-03-04T16:36:31.315Z,20.45
2023-03-04T16:39:03.652Z,20.23
2023-03-04T16:41:31.509Z,19.48
2023-03-04T16:44:00.990Z,19.23
2023-03-04T16:46:30.349Z,20.20
2023-03-04T16:48:58.273Z,22.48
2023-03-04T16:51:26.184Z,21.85
2023-03-04T16:53:57.209Z,21.20
2023-03-04T16:56:25.089Z,20.67
2023-03-04T16:58:56.283Z,20.83
2023-03-04T17:01:28.249Z,37.05
2023-03-04T17:03:56.578Z,29.40
2023-03-04T17:06:25.242Z,48.92
2023-03-04T17:08:53.100Z,41.22
2023-03-04T17:11:23.623Z,23.05
2023-03-04T17:13:52.290Z,24.27
2023-03-04T17:16:20.287Z,22.75
2023-03-04T17:18:48.178Z,22.88
2023-03-04T17:21:19.354Z,24.60
2023-03-04T17:23:47.256Z,23.80
2023-03-04T17:26:16.157Z,23.25
2023-03-04T17:28:44.125Z,23.77
2023-03-04T17:31:13.592Z,24.55
2023-03-04T17:33:41.968Z,24.75
2023-03-04T17:36:14.754Z,24.75
2023-03-04T17:38:43.373Z,27.95
2023-03-04T17:41:16.230Z,35.85
2023-03-04T17:43:45.761Z,29.77
2023-03-04T17:46:15.358Z,67.00
2023-03-04T17:48:44.047Z,32.47
2023-03-04T17:51:12.244Z,33.03
2023-03-04T17:53:40.293Z,34.85
2023-03-04T17:56:11.435Z,27.25
2023-03-04T17:58:40.456Z,34.88
2023-03-04T18:01:20.487Z,29.65
2023-03-04T18:03:48.721Z,26.88
2023-03-04T18:06:17.361Z,38.38
2023-03-04T18:08:45.825Z,26.30
2023-03-04T18:11:13.741Z,34.28
2023-03-04T18:13:43.244Z,55.70
2023-03-04T18:16:15.128Z,37.47
2023-03-04T18:18:43.658Z,26.27
2023-03-04T18:21:13.955Z,24.45
2023-03-04T18:23:41.877Z,27.38
2023-03-04T18:26:09.971Z,25.50
2023-03-04T18:28:38.170Z,24.60
2023-03-04T18:31:06.456Z,27.50
2023-03-04T18:33:34.606Z,24.85
2023-03-04T18:36:08.077Z,25.00
2023-03-04T18:38:35.908Z,26.02
2023-03-04T18:41:07.012Z,24.08
2023-03-04T18:43:35.353Z,26.88
2023-03-04T18:46:29.051Z,28.10
2023-03-04T18:51:27.175Z,27.15
2023-03-04T18:53:55.290Z,28.52
2023-03-04T18:56:46.461Z,27.65
2023-03-04T18:59:17.380Z,29.63
2023-03-04T19:01:46.056Z,27.55
2023-03-04T19:04:16.304Z,32.78
2023-03-04T19:06:44.223Z,31.23
2023-03-04T19:09:12.194Z,32.72
2023-03-04T19:11:40.075Z,34.53
2023-03-04T19:14:08.134Z,35.97
2023-03-04T19:16:36.387Z,38.20
2023-03-04T19:19:04.768Z,36.28
2023-03-04T19:21:38.389Z,36.17
2023-03-04T19:24:06.746Z,34.60
2023-03-04T19:26:35.264Z,30.73
2023-03-04T19:29:03.851Z,31.88
2023-03-04T19:31:31.693Z,29.95
2023-03-04T19:33:59.773Z,31.33
2023-03-04T19:36:27.691Z,30.27
2023-03-04T19:38:55.934Z,31.50
2023-03-04T19:41:23.951Z,31.42
2023-03-04T19:43:51.825Z,30.75
2023-03-04T19:46:19.639Z,29.77
2023-03-04T19:48:50.500Z,30.23
2023-03-04T19:51:24.209Z,32.08
2023-03-04T19:53:53.338Z,33.42
2023-03-04T19:56:22.962Z,32.38
2023-03-04T19:58:54.306Z,31.38
2023-03-04T20:01:28.917Z,32.00
2023-03-04T20:04:11.200Z,32.83
2023-03-04T20:06:42.450Z,31.88
2023-03-04T20:09:11.161Z,33.22
2023-03-04T20:11:47.390Z,34.63
2023-03-04T20:14:24.651Z,34.40
2023-03-04T20:16:52.577Z,34.63
2023-03-04T20:19:20.429Z,34.38
2023-03-04T20:21:52.366Z,36.03
2023-03-04T20:24:23.880Z,34.67
2023-03-04T20:26:52.389Z,36.25
2023-03-04T20:29:20.244Z,36.10
2023-03-04T20:31:48.690Z,36.97
2023-03-04T20:34:16.669Z,39.30
2023-03-04T20:36:44.861Z,38.15
2023-03-04T20:39:27.974Z,38.83
2023-03-04T20:41:58.445Z,38.13
2023-03-04T20:44:26.532Z,35.78
2023-03-04T20:46:54.370Z,36.30
2023-03-04T20:49:24.810Z,36.97
2023-03-04T20:52:00.791Z,39.90
2023-03-04T20:54:38.883Z,42.58
2023-03-04T20:57:08.175Z,41.22
2023-03-04T20:59:38.135Z,39.38
2023-03-04T21:02:07.978Z,37.95
2023-03-04T21:04:35.979Z,37.33
2023-03-04T21:07:04.425Z,38.15
2023-03-04T21:09:32.349Z,37.92
2023-03-04T21:12:01.113Z,40.08
2023-03-04T21:14:31.180Z,36.95
2023-03-04T21:17:01.955Z,37.47
2023-03-04T21:19:43.538Z,38.88
2023-03-04T21:22:18.341Z,40.30
2023-03-04T21:24:47.002Z,36.95
2023-03-04T21:27:17.104Z,38.90
2023-03-04T21:29:45.116Z,37.67
2023-03-04T21:32:33.232Z,39.30
2023-03-04T21:35:01.154Z,37.53
2023-03-04T21:37:29.055Z,37.53
2023-03-04T21:39:58.537Z,39.03
2023-03-04T21:42:26.431Z,39.17
2023-03-04T21:44:54.271Z,39.55
2023-03-04T21:47:22.776Z,39.03
2023-03-04T21:49:50.826Z,39.67
2023-03-04T21:52:21.589Z,37.83
2023-03-04T21:54:49.870Z,39.13
2023-03-04T21:57:18.568Z,41.20
2023-03-04T21:59:46.400Z,39.15
2023-03-04T22:02:17.385Z,39.60
2023-03-04T22:04:45.752Z,42.85
2023-03-04T22:07:14.410Z,41.40
2023-03-04T22:09:42.216Z,41.38
2023-03-04T22:12:10.309Z,42.10
2023-03-04T22:14:38.316Z,41.90
2023-03-04T22:17:06.337Z,41.70
2023-03-04T22:19:34.209Z,40.83
2023-03-04T22:22:02.154Z,41.33
2023-03-04T22:24:30.300Z,46.25
2023-03-04T22:27:00.080Z,46.50
2023-03-04T22:29:27.934Z,44.88
2023-03-04T22:31:55.867Z,41.42
2023-03-04T22:34:23.857Z,42.58
2023-03-04T22:36:51.721Z,41.38
2023-03-04T22:39:19.688Z,43.45
2023-03-04T22:41:47.910Z,41.60
2023-03-04T22:44:15.858Z,39.80
2023-03-04T22:46:44.045Z,39.92
2023-03-04T22:49:14.095Z,40.20
2023-03-04T22:51:43.517Z,40.78
2023-03-04T22:54:17.352Z,39.85
2023-03-04T22:56:45.504Z,40.90
2023-03-04T22:59:14.073Z,39.50
2023-03-04T23:01:42.034Z,40.70
2023-03-04T23:04:09.940Z,39.35
2023-03-04T23:06:37.896Z,39.75
2023-03-04T23:09:06.005Z,40.35
2023-03-04T23:11:35.711Z,39.63
2023-03-04T23:14:07.145Z,39.00
2023-03-04T23:16:38.785Z,39.55
2023-03-04T23:19:08.165Z,42.17
2023-03-04T23:21:37.417Z,39.67
2023-03-04T23:24:07.543Z,39.72
2023-03-04T23:26:41.911Z,40.13
2023-03-04T23:29:13.812Z,40.90
2023-03-04T23:31:42.774Z,39.47
2023-03-04T23:34:11.436Z,39.38
2023-03-04T23:36:39.315Z,41.42
2023-03-04T23:39:08.008Z,40.22
2023-03-04T23:41:36.121Z,41.17
2023-03-04T23:44:04.853Z,40.60
2023-03-04T23:46:33.038Z,40.67
2023-03-04T23:49:00.852Z,39.47
2023-03-04T23:51:30.055Z,39.92
2023-03-04T23:53:58.945Z,38.95
2023-03-04T23:56:29.581Z,38.10
2023-03-04T23:58:59.146Z,40.75
